Flight Track Log - Related Links

Times and Time Zones

All times are in EDT time to prevent confusion due to time zone crossing. See the UAL619 flight status page for this flight to view local times or setup timezone preferences in your user account.

Time Position Orientation Groundspeed Altitude Reporting Facility
EDT Latitude Longitude Course Direction KTS MPH feet Rate Location/Type
Mon 10:33:49 AM 29.9658 -95.3431 334° Northwest 167 192 800  Level Houston Center
Mon 10:34:27 AM 29.9650 -95.3117 92° East 212 244 1,900 1,814 Climbing Houston Center
Mon 10:35:15 AM 30.0069 -95.2944 20° North 277 319 3,400 1,200 Climbing Houston Center
Mon 10:36:00 AM 30.2799 -95.5110 334° Northwest  Level FlightAware Approximate
Mon 10:36:17 AM 30.1042 -95.2978 358° North 292 336 4,100  Level Houston Center
Mon 10:37:00 AM 30.3805 -95.5669 334° Northwest  Level FlightAware Approximate
Mon 10:37:19 AM 30.1817 -95.3206 346° North 291 335 5,700  Level Houston Center
Mon 10:38:00 AM 30.4812 -95.6229 334° Northwest  Level FlightAware Approximate
Mon 10:38:21 AM 30.2425 -95.3783 321° Northwest 284 327 8,000  Level Houston Center
Mon 10:39:00 AM 30.5824 -95.6772 334° Northwest  Level FlightAware Approximate
Mon 10:39:23 AM 30.3072 -95.4403 320° Northwest 299 344 10,300  Level Houston Center
Mon 10:40:25 AM 30.3789 -95.5072 321° Northwest 322 371 12,100 2,064 Climbing Houston Center
Mon 10:41:28 AM 30.4742 -95.5947 322° Northwest 359 413 14,600 2,256 Climbing Houston Center
Mon 10:42:30 AM 30.5597 -95.6681 324° Northwest 379 436 16,800 2,129 Climbing Houston Center
Mon 10:43:32 AM 30.6628 -95.7208 336° Northwest 403 464 19,000 2,081 Climbing Houston Center
Mon 10:44:34 AM 30.7597 -95.7736 335° Northwest 405 466 21,100 2,032 Climbing Houston Center
Mon 10:45:36 AM 30.8875 -95.8417 335° Northwest 418 481 23,200 1,790 Climbing Houston Center
Mon 10:46:38 AM 30.9950 -95.8992 335° Northwest 422 486 24,800 1,500 Climbing Houston Center
Mon 10:47:40 AM 31.1067 -95.9600 335° Northwest 434 499 26,300 1,381 Climbing Houston Center
Mon 10:48:44 AM 31.2283 -96.0092 341° North 443 510 27,700 1,355 Climbing Fort Worth Center
Mon 10:49:44 AM 31.3481 -96.0561 341° North 448 516 29,100 1,250 Climbing Fort Worth Center
Mon 10:50:44 AM 31.4739 -96.1053 342° North 467 537 30,200 1,450 Climbing Fort Worth Center
Mon 10:51:44 AM 31.6081 -96.1572 342° North 467 537 32,000 1,500 Climbing Fort Worth Center
Mon 10:52:44 AM 31.7356 -96.1822 351° North 457 526 33,200 1,000 Climbing Fort Worth Center
Mon 10:53:44 AM 31.8489 -96.2369 338° Northwest 449 517 34,000 400 Climbing Fort Worth Center
Mon 10:54:44 AM 31.9661 -96.2894 339° North 444 511 34,000  Level Fort Worth Center
Mon 10:55:44 AM 32.0836 -96.3394 340° North 444 511 34,000  Level Fort Worth Center
Mon 10:56:44 AM 32.2008 -96.3994 337° Northwest 449 517 34,000  Level Fort Worth Center
Mon 10:57:44 AM 32.2894 -96.4992 316° Northwest 438 504 34,000  Level Fort Worth Center
Mon 10:58:44 AM 32.3778 -96.5967 317° Northwest 438 504 34,000  Level Fort Worth Center
Mon 10:59:44 AM 32.4661 -96.6994 316° Northwest 438 504 34,000  Level Fort Worth Center
Mon 11:00:44 AM 32.5542 -96.7972 317° Northwest 438 504 34,000  Level Fort Worth Center
Mon 11:01:44 AM 32.6339 -96.8881 316° Northwest 433 498 34,000  Level Fort Worth Center
Mon 11:02:44 AM 32.7242 -96.9886 317° Northwest 433 498 34,000  Level Fort Worth Center
Mon 11:03:44 AM 32.8206 -97.1019 315° West 433 498 34,000  Level Fort Worth Center
Mon 11:04:44 AM 32.9106 -97.2031 317° Northwest 433 498 34,000  Level Fort Worth Center
Mon 11:05:44 AM 32.9942 -97.3094 313° West 438 504 34,000  Level Fort Worth Center
Mon 11:06:44 AM 33.0797 -97.4208 313° West 454 522 34,000  Level Fort Worth Center
Mon 11:07:44 AM 33.1631 -97.5275 313° West 442 509 34,000  Level Fort Worth Center
Mon 11:08:44 AM 33.2464 -97.6319 314° West 442 509 34,000  Level Fort Worth Center
Mon 11:09:44 AM 33.3214 -97.7267 313° West 442 509 34,000  Level Fort Worth Center
Mon 11:10:44 AM 33.4047 -97.8339 313° West 442 509 34,000  Level Fort Worth Center
Mon 11:11:44 AM 33.4878 -97.9389 313° West 437 503 34,000  Level Fort Worth Center
Mon 11:12:44 AM 33.5686 -98.0467 312° West 432 497 34,000  Level Fort Worth Center
Mon 11:13:44 AM 33.6514 -98.1497 314° West 432 497 34,000  Level Fort Worth Center
Mon 11:14:44 AM 33.7300 -98.2575 311° West 432 497 34,000  Level Fort Worth Center
Mon 11:15:44 AM 33.8128 -98.3633 313° West 432 497 34,000 200 Level Fort Worth Center
Mon 11:16:44 AM 33.9017 -98.4794 313° West 432 497 34,400 750 Climbing Fort Worth Center
Mon 11:17:44 AM 33.9800 -98.5806 313° West 426 490 35,500 800 Climbing Fort Worth Center
Mon 11:18:44 AM 34.0689 -98.6822 317° Northwest 421 484 36,000 250 Climbing Fort Worth Center
Mon 11:19:44 AM 34.1494 -98.7636 320° Northwest 421 484 36,000  Level Fort Worth Center
Mon 11:20:44 AM 34.2358 -98.8531 319° Northwest 416 479 36,000  Level Fort Worth Center
Mon 11:21:44 AM 34.3267 -98.9475 319° Northwest 416 479 36,000  Level Fort Worth Center
Mon 11:22:44 AM 34.4153 -99.0397 319° Northwest 416 479 36,000  Level Fort Worth Center
Mon 11:23:44 AM 34.5119 -99.1372 320° Northwest 411 473 36,000  Level Fort Worth Center
Mon 11:24:44 AM 34.6025 -99.2300 320° Northwest 416 479 36,000  Level Fort Worth Center
Mon 11:25:44 AM 34.6906 -99.3278 318° Northwest 416 479 36,000  Level Fort Worth Center
Mon 11:26:44 AM 34.7811 -99.4208 320° Northwest 416 479 36,000  Level Fort Worth Center
Mon 11:27:44 AM 34.8711 -99.5167 319° Northwest 422 486 36,000  Level Fort Worth Center
Mon 11:28:44 AM 34.9592 -99.6100 319° Northwest 422 486 36,000  Level Fort Worth Center
Mon 11:29:34 AM 35.0303 -99.6833 320° Northwest 425 489 36,000  Level Albuquerque Center
Mon 11:30:36 AM 35.1200 -99.7803 319° Northwest 426 490 36,000  Level Albuquerque Center
Mon 11:31:38 AM 35.2111 -99.8764 319° Northwest 428 493 36,000  Level Albuquerque Center
Mon 11:32:40 AM 35.3003 -99.9722 319° Northwest 427 491 36,000  Level Albuquerque Center
Mon 11:33:42 AM 35.3914 -100.0683 319° Northwest 428 493 36,000  Level Albuquerque Center
Mon 11:34:45 AM 35.4814 -100.1647 319° Northwest 427 491 36,000  Level Albuquerque Center
Mon 11:35:47 AM 35.5900 -100.2825 319° Northwest 430 495 36,000  Level Albuquerque Center
Mon 11:36:49 AM 35.6800 -100.3806 319° Northwest 430 495 36,000  Level Albuquerque Center
Mon 11:37:51 AM 35.7711 -100.4789 319° Northwest 431 496 36,000  Level Albuquerque Center
Mon 11:38:53 AM 35.8606 -100.5775 318° Northwest 431 496 36,000  Level Albuquerque Center
Mon 11:39:42 AM 35.9317 -100.6561 318° Northwest 428 493 36,000  Level Albuquerque Center
Mon 11:40:44 AM 36.0208 -100.7558 318° Northwest 430 495 36,000  Level Albuquerque Center
Mon 11:41:46 AM 36.1097 -100.8586 317° Northwest 433 498 36,000  Level Albuquerque Center
Mon 11:42:48 AM 36.2097 -100.9869 314° West 432 497 36,000  Level Albuquerque Center
Mon 11:43:50 AM 36.2925 -101.0922 314° West 426 490 36,000  Level Albuquerque Center
Mon 11:44:52 AM 36.3725 -101.1961 314° West 431 496 36,000  Level Albuquerque Center
Mon 11:45:54 AM 36.4661 -101.3153 314° West 431 496 36,000  Level Albuquerque Center
Mon 11:46:56 AM 36.5456 -101.4169 314° West 429 494 36,000  Level Albuquerque Center
Mon 11:47:58 AM 36.6389 -101.5342 315° West 427 491 36,000  Level Albuquerque Center
Mon 11:49:00 AM 36.7175 -101.6339 315° West 423 487 36,000  Level Albuquerque Center
Mon 11:50:02 AM 36.7947 -101.7333 314° West 418 481 36,000  Level Albuquerque Center
Mon 11:51:04 AM 36.8861 -101.8500 314° West 418 481 36,000  Level Albuquerque Center
Mon 11:52:06 AM 36.9642 -101.9522 314° West 421 484 36,000  Level Albuquerque Center
Mon 11:53:08 AM 37.0550 -102.0706 314° West 421 484 36,000  Level Albuquerque Center
Mon 11:54:10 AM 37.1336 -102.1722 314° West 423 487 36,000  Level Albuquerque Center
Mon 11:55:12 AM 37.2233 -102.2906 314° West 425 489 36,000  Level Albuquerque Center
Mon 11:56:13 AM 37.3033 -102.3944 314° West 430 495 36,000  Level Albuquerque Center
Mon 11:57:15 AM 37.3944 -102.5147 314° West 427 491 36,000  Level Albuquerque Center
Mon 11:58:04 AM 37.4594 -102.6006 314° West 428 493 36,000  Level Denver Center
Mon 11:59:06 AM 37.5381 -102.7025 314° West 426 490 36,000  Level Denver Center
Mon 12:00:08 PM 37.6286 -102.8239 313° West 427 491 36,000  Level Denver Center
Mon 12:01:10 PM 37.7067 -102.9275 314° West 427 491 36,000  Level Denver Center
Mon 12:02:12 PM 37.7967 -103.0486 313° West 426 490 36,000  Level Denver Center
Mon 12:03:14 PM 37.8750 -103.1528 314° West 427 491 36,000  Level Denver Center
Mon 12:04:16 PM 37.9653 -103.2739 313° West 426 490 36,000  Level Denver Center
Mon 12:05:18 PM 38.0417 -103.3775 313° West 422 486 36,000  Level Denver Center
Mon 12:06:20 PM 38.1308 -103.4975 313° West 420 483 36,000  Level Denver Center
Mon 12:07:22 PM 38.2081 -103.6014 313° West 423 487 36,000  Level Denver Center
Mon 12:08:24 PM 38.2969 -103.7236 313° West 423 487 36,000  Level Denver Center
Mon 12:09:26 PM 38.3742 -103.8275 313° West 423 487 36,000  Level Denver Center
Mon 12:10:28 PM 38.4642 -103.9508 313° West 426 490 36,000  Level Denver Center
Mon 12:11:30 PM 38.5414 -104.0569 313° West 426 490 36,000  Level Denver Center
Mon 12:12:32 PM 38.6189 -104.1681 312° West 435 501 36,000  Level Denver Center
Mon 12:13:34 PM 38.7131 -104.3033 312° West 433 498 36,000  Level Denver Center
Mon 12:14:36 PM 38.7950 -104.4189 312° West 433 498 36,000  Level Denver Center
Mon 12:15:38 PM 38.8772 -104.5364 312° West 436 502 36,000  Level Denver Center
Mon 12:16:40 PM 38.9589 -104.6503 313° West 429 494 36,000  Level Denver Center
Mon 12:17:42 PM 39.0397 -104.7672 312° West 430 495 36,000  Level Denver Center
Mon 12:18:44 PM 39.1186 -104.8819 312° West 423 487 36,000  Level Denver Center
Mon 12:19:46 PM 39.1983 -104.9958 312° West 422 486 36,000  Level Denver Center
Mon 12:20:48 PM 39.2764 -105.1097 312° West 418 481 36,000  Level Denver Center
Mon 12:21:50 PM 39.3550 -105.2250 311° West 419 482 36,000  Level Denver Center
Mon 12:22:52 PM 39.4461 -105.3608 311° West 422 486 36,000  Level Denver Center
Mon 12:23:54 PM 39.5256 -105.4767 312° West 424 488 36,000  Level Denver Center
Mon 12:24:56 PM 39.6033 -105.5939 311° West 425 489 36,000  Level Denver Center
Mon 12:25:58 PM 39.6833 -105.7117 311° West 429 494 36,000  Level Denver Center
Mon 12:27:00 PM 39.7639 -105.8303 311° West 432 497 36,000  Level Denver Center
Mon 12:28:02 PM 39.8436 -105.9503 311° West 433 498 36,000  Level Denver Center
Mon 12:29:04 PM 39.9231 -106.0689 311° West 432 497 36,000  Level Denver Center
Mon 12:30:06 PM 40.0019 -106.1869 311° West 427 491 36,000  Level Denver Center
Mon 12:31:08 PM 40.0783 -106.3019 311° West 419 482 36,000  Level Denver Center
Mon 12:32:10 PM 40.1656 -106.4344 311° West 410 472 36,000  Level Denver Center
Mon 12:33:12 PM 40.2333 -106.5375 311° West 409 471 36,000  Level Denver Center
Mon 12:34:15 PM 40.3069 -106.6503 311° West 409 471 36,000  Level Denver Center
Mon 12:35:17 PM 40.3828 -106.7653 311° West 413 475 36,000  Level Denver Center
Mon 12:36:19 PM 40.4714 -106.9142 308° West 422 486 36,000  Level Denver Center
Mon 12:37:21 PM 40.5364 -107.0386 305° West 424 488 36,000  Level Denver Center
Mon 12:38:23 PM 40.6022 -107.1700 303° West 428 493 36,000  Level Denver Center
Mon 12:39:25 PM 40.6722 -107.3061 304° West 427 491 36,000  Level Denver Center
Mon 12:40:27 PM 40.7472 -107.4531 304° West 432 497 36,000  Level Denver Center
Mon 12:41:29 PM 40.8089 -107.5714 305° West 434 499 36,000  Level Denver Center
Mon 12:42:31 PM 40.8825 -107.7189 303° West 432 497 36,000  Level Denver Center
Mon 12:43:33 PM 40.9478 -107.8469 304° West 435 501 36,000  Level Denver Center
Mon 12:44:35 PM 41.0239 -107.9956 304° West 438 504 36,000  Level Denver Center
Mon 12:45:37 PM 41.0886 -108.1247 304° West 440 506 36,000  Level Denver Center
Mon 12:46:39 PM 41.1642 -108.2742 304° West 439 505 36,000  Level Denver Center
Mon 12:47:41 PM 41.2283 -108.4047 303° West 440 506 36,000  Level Denver Center
Mon 12:48:43 PM 41.3044 -108.5581 303° West 446 513 36,000  Level Denver Center
Mon 12:49:39 PM 41.3694 -108.6881 304° West 443 510 36,000  Level Salt Lake Center
Mon 12:50:41 PM 41.4333 -108.8192 303° West 442 509 36,000  Level Salt Lake Center
Mon 12:51:42 PM 41.5072 -108.9708 303° West 443 510 36,000  Level Salt Lake Center
Mon 12:52:44 PM 41.5694 -109.0986 303° West 441 507 36,000  Level Salt Lake Center
Mon 12:53:45 PM 41.6439 -109.2514 303° West 444 511 36,000  Level Salt Lake Center
Mon 12:54:47 PM 41.7072 -109.3842 303° West 445 512 36,000  Level Salt Lake Center
Mon 12:55:49 PM 41.7811 -109.5389 303° West 444 511 36,000  Level Salt Lake Center
Mon 12:56:50 PM 41.8450 -109.6736 303° West 446 513 36,000  Level Salt Lake Center
Mon 12:57:52 PM 41.9100 -109.8083 303° West 448 516 36,000  Level Salt Lake Center
Mon 12:58:53 PM 41.9836 -109.9664 302° West 448 516 36,000  Level Salt Lake Center
Mon 12:59:55 PM 42.0514 -110.0986 305° West 449 517 36,000  Level Salt Lake Center
Mon 01:01:00 PM 42.1228 -110.2357 305° West  Level FlightAware Approximate
Mon 01:01:58 PM 42.2042 -110.3836 305° West 453 521 36,000  Level Salt Lake Center
Mon 01:03:00 PM 42.2861 -110.5364 306° West 451 519 36,000  Level Salt Lake Center
Mon 01:04:01 PM 42.3547 -110.6697 305° West 450 518 36,000  Level Salt Lake Center
Mon 01:05:03 PM 42.4250 -110.8011 306° West 451 519 36,000  Level Salt Lake Center
Mon 01:06:04 PM 42.5094 -110.9603 306° West 455 524 36,000  Level Salt Lake Center
Mon 01:07:06 PM 42.5828 -111.1053 305° West 456 525 36,000  Level Salt Lake Center
Mon 01:08:07 PM 42.6547 -111.2447 305° West 455 524 36,000  Level Salt Lake Center
Mon 01:09:09 PM 42.7300 -111.3853 306° West 452 520 36,000  Level Salt Lake Center
Mon 01:10:10 PM 42.7989 -111.5200 305° West 451 519 36,000  Level Salt Lake Center
Mon 01:11:12 PM 42.8783 -111.6761 305° West 449 517 36,000  Level Salt Lake Center
Mon 01:12:13 PM 42.9444 -111.8083 304° West 443 510 36,000  Level Salt Lake Center
Mon 01:13:15 PM 43.0125 -111.9397 305° West 441 507 36,000  Level Salt Lake Center
Mon 01:14:16 PM 43.0906 -112.0947 305° West 442 509 36,000  Level Salt Lake Center
Mon 01:15:18 PM 43.1569 -112.2264 305° West 442 509 36,000  Level Salt Lake Center
Mon 01:16:19 PM 43.2342 -112.3817 304° West 441 507 36,000  Level Salt Lake Center
Mon 01:17:21 PM 43.3036 -112.5125 306° West 443 510 36,000  Level Salt Lake Center
Mon 01:18:22 PM 43.3728 -112.6456 306° West 445 512 36,000  Level Salt Lake Center
Mon 01:19:24 PM 43.4497 -112.7992 305° West 441 507 36,000  Level Salt Lake Center
Mon 01:20:25 PM 43.5172 -112.9325 305° West 443 510 36,000  Level Salt Lake Center
Mon 01:21:27 PM 43.5964 -113.0883 305° West 442 509 36,000  Level Salt Lake Center
Mon 01:22:28 PM 43.6633 -113.2217 305° West 441 507 36,000  Level Salt Lake Center
Mon 01:23:30 PM 43.7308 -113.3550 305° West 443 510 36,000  Level Salt Lake Center
Mon 01:24:32 PM 43.8086 -113.5108 305° West 440 506 36,000  Level Salt Lake Center
Mon 01:25:33 PM 43.8786 -113.6492 305° West 452 520 36,000  Level Salt Lake Center
Mon 01:26:35 PM 43.9567 -113.8061 305° West 446 513 36,000  Level Salt Lake Center
Mon 01:27:36 PM 44.0267 -113.9442 305° West 442 509 36,000  Level Salt Lake Center
Mon 01:28:38 PM 44.0900 -114.0797 303° West 439 505 36,000  Level Salt Lake Center
Mon 01:29:39 PM 44.1725 -114.2381 306° West 453 521 36,000  Level Salt Lake Center
Mon 01:30:41 PM 44.2356 -114.3733 303° West 437 503 36,000  Level Salt Lake Center
Mon 01:31:42 PM 44.3128 -114.5311 304° West 441 507 36,000  Level Salt Lake Center
Mon 01:32:44 PM 44.3775 -114.6661 304° West 439 505 36,000  Level Salt Lake Center
Mon 01:33:46 PM 44.4419 -114.8017 304° West 438 504 36,000  Level Salt Lake Center
Mon 01:34:47 PM 44.5158 -114.9603 303° West 438 504 36,000  Level Salt Lake Center
Mon 01:35:49 PM 44.5797 -115.0956 304° West 436 502 36,000  Level Salt Lake Center
Mon 01:36:50 PM 44.6536 -115.2544 303° West 436 502 36,000  Level Salt Lake Center
Mon 01:37:52 PM 44.7172 -115.3922 303° West 439 505 36,000  Level Salt Lake Center
Mon 01:38:54 PM 44.7922 -115.5508 304° West 439 505 36,000  Level Salt Lake Center
Mon 01:39:55 PM 44.8558 -115.6883 303° West 439 505 36,000  Level Salt Lake Center
Mon 01:40:57 PM 44.9311 -115.8478 304° West 439 505 36,000  Level Salt Lake Center
Mon 01:41:59 PM 44.9939 -115.9878 302° West 442 509 36,000  Level Salt Lake Center
Mon 01:43:00 PM 45.0464 -116.1342 297° West 439 505 36,000  Level Salt Lake Center
Mon 01:45:04 PM 45.1536 -116.4569 295° West 437 503 36,000  Level Salt Lake Center
Mon 01:46:05 PM 45.2117 -116.6314 295° West 439 505 36,000  Level Salt Lake Center
Mon 01:46:53 PM 45.2531 -116.7564 295° West 438 504 36,000  Level Seattle Center
Mon 01:47:53 PM 45.3017 -116.9042 295° West 433 498 36,000  Level Seattle Center
Mon 01:48:54 PM 45.3500 -117.0553 295° West 437 503 36,000  Level Seattle Center
Mon 01:49:55 PM 45.4067 -117.2314 295° West 438 504 36,000  Level Seattle Center
Mon 01:50:56 PM 45.4583 -117.3911 295° West 438 504 36,000  Level Seattle Center
Mon 01:51:57 PM 45.5097 -117.5494 295° West 440 506 36,000  Level Seattle Center
Mon 01:52:58 PM 45.5594 -117.7081 294° West 441 507 36,000  Level Seattle Center
Mon 01:53:59 PM 45.6103 -117.8667 295° West 441 507 36,000  Level Seattle Center
Mon 01:55:00 PM 45.6597 -118.0267 294° West 443 510 36,000  Level Seattle Center
Mon 01:56:01 PM 45.7064 -118.1767 294° West 441 507 36,000  Level Seattle Center
Mon 01:57:01 PM 45.7564 -118.3369 294° West 441 507 36,000  Level Seattle Center
Mon 01:58:02 PM 45.8056 -118.4953 294° West 437 503 36,000  Level Seattle Center
Mon 01:59:03 PM 45.8558 -118.6614 294° West 435 501 36,000  Level Seattle Center
Mon 02:00:04 PM 45.9039 -118.8192 294° West 434 499 36,000  Level Seattle Center
Mon 02:01:05 PM 45.9600 -119.0047 294° West 427 491 36,000  Level Seattle Center
Mon 02:02:06 PM 46.0069 -119.1611 293° West 428 493 36,000  Level Seattle Center
Mon 02:03:07 PM 46.0547 -119.3203 293° West 437 503 36,000  Level Seattle Center
Mon 02:04:08 PM 46.1006 -119.4778 293° West 433 498 36,000  Level Seattle Center
Mon 02:05:08 PM 46.1481 -119.6361 293° West 432 497 36,000  Level Seattle Center
Mon 02:06:09 PM 46.1978 -119.7925 295° West 432 497 36,000  Level Seattle Center
Mon 02:07:10 PM 46.2703 -119.9244 309° West 426 490 36,000  Level Seattle Center
Mon 02:08:11 PM 46.3442 -120.0508 310° West 421 484 36,000  Level Seattle Center
Mon 02:09:12 PM 46.4181 -120.1828 309° West 420 483 36,000 -148 Level Seattle Center
Mon 02:10:13 PM 46.4919 -120.3147 309° West 423 487 35,700 -590 Descending Seattle Center
Mon 02:11:14 PM 46.5625 -120.4400 309° West 409 471 34,800 -934 Descending Seattle Center
Mon 02:12:15 PM 46.6275 -120.5683 306° West 399 459 33,800 -942 Descending Seattle Center
Mon 02:13:15 PM 46.7022 -120.7275 304° West 398 458 32,900 -942 Descending Seattle Center
Mon 02:14:16 PM 46.7636 -120.8517 306° West 384 442 31,900 -1,377 Descending Seattle Center
Mon 02:15:17 PM 46.8211 -120.9756 304° West 373 429 30,100 -1,770 Descending Seattle Center
Mon 02:16:18 PM 46.8764 -121.0911 305° West 354 407 28,300 -2,213 Descending Seattle Center
Mon 02:17:19 PM 46.9314 -121.2108 304° West 358 412 25,600 -2,705 Descending Seattle Center
Mon 02:18:20 PM 46.9875 -121.3297 305° West 359 413 22,800 -2,389 Descending Seattle Center
Mon 02:19:07 PM 47.0358 -121.4311 305° West 366 421 21,300 -1,685 Descending Seattle Center
Mon 02:19:49 PM 47.0775 -121.5217 304° West 359 413 20,300 -1,459 Descending Seattle Center
Mon 02:20:21 PM 47.0928 -121.5594 301° West 353 406 19,500 -1,770 Descending Seattle Center
Mon 02:20:50 PM 47.1292 -121.6333 306° West 324 373 18,500 -1,672 Descending Seattle Center
Mon 02:21:22 PM 47.1536 -121.6914 302° West 332 382 17,800 -2,164 Descending Seattle Center
Mon 02:21:51 PM 47.1800 -121.7419 308° West 323 372 16,300 -2,656 Descending Seattle Center
Mon 02:22:23 PM 47.2036 -121.7989 301° West 321 369 15,100 -1,672 Descending Seattle Center
Mon 02:22:52 PM 47.2278 -121.8492 305° West 319 367 14,600 -984 Descending Seattle Center
Mon 02:23:24 PM 47.2522 -121.9036 303° West 314 361 14,100 -1,082 Descending Seattle Center
Mon 02:23:53 PM 47.2758 -121.9567 303° West 311 358 13,500 -984 Descending Seattle Center
Mon 02:24:25 PM 47.2997 -122.0072 305° West 309 356 13,100 -1,000 Descending Seattle Center
Mon 02:24:53 PM 47.3261 -122.0661 303° West 303 349 12,500 -1,082 Descending Seattle Center
Mon 02:25:26 PM 47.3461 -122.1103 304° West 304 350 12,000 -1,082 Descending Seattle Center
Mon 02:25:54 PM 47.3722 -122.1683 304° West 301 346 11,400 -1,000 Descending Seattle Center
Mon 02:26:26 PM 47.4033 -122.1914 333° Northwest 304 350 11,000 -984 Descending Seattle Center
Mon 02:26:55 PM 47.4494 -122.1911 360° North 292 336 10,400 -885 Descending Seattle Center
Mon 02:27:27 PM 47.4814 -122.1894 North 286 329 10,100 -1,180 Descending Seattle Center
Mon 02:27:56 PM 47.5244 -122.1889 360° North 263 303 9,200 -1,869 Descending Seattle Center
Mon 02:28:28 PM 47.5625 -122.1858 North 262 302 8,200 -1,967 Descending Seattle Center
Mon 02:28:57 PM 47.5967 -122.1847 North 258 297 7,200 -2,066 Descending Seattle Center
Mon 02:29:29 PM 47.6350 -122.1811 North 261 300 6,100 -1,600 Descending Seattle Center
Mon 02:29:57 PM 47.6658 -122.2025 335° Northwest 244 281 5,600 -1,082 Descending Seattle Center
Mon 02:30:30 PM 47.6744 -122.2492 285° West 227 261 5,000 -1,082 Descending Seattle Center
Mon 02:30:58 PM 47.6744 -122.2897 270° West 211 243 4,500 -1,071 Descending Seattle Center

Login

Don't have an account? Register now (free) for customized features, flight alerts, and more!